Time;durP1;ratioP1;P1;durP2;ratioP2;P2;SDS_P1;SDS_P2;PMS_P1;PMS_P2;Temp;Humidity;BMP_temperature;BMP_pressure;BME280_temperature;BME280_humidity;BME280_pressure;Samples;Min_cycle;Max_cycle;Signal;HPM_P1;HPM_P2
2021/07/22 00:00:10;;;;;;;17.02;13.55;;;15.60;99.90;;;;;;4995845;28;20031;-75
2021/07/22 00:02:36;;;;;;;17.05;12.63;;;15.70;99.90;;;;;;4995622;28;20058;-75
2021/07/22 00:05:02;;;;;;;15.65;13.23;;;16.00;99.90;;;;;;4995608;28;20109;-75
2021/07/22 00:07:28;;;;;;;18.92;13.55;;;15.90;99.90;;;;;;4995693;28;20041;-75
2021/07/22 00:09:54;;;;;;;17.30;13.70;;;15.80;99.90;;;;;;4994347;28;20026;-75
2021/07/22 00:12:20;;;;;;;17.42;13.77;;;15.70;99.90;;;;;;4995694;28;20030;-75
2021/07/22 00:14:45;;;;;;;15.75;13.40;;;15.60;99.90;;;;;;4994126;28;20495;-75
2021/07/22 00:17:11;;;;;;;19.20;14.05;;;15.60;99.90;;;;;;4995411;28;20049;-75
2021/07/22 00:19:36;;;;;;;17.80;14.45;;;15.60;99.90;;;;;;4995515;28;20384;-75
2021/07/22 00:22:02;;;;;;;15.70;13.75;;;15.60;99.90;;;;;;4994001;28;20027;-73
2021/07/22 00:24:28;;;;;;;17.75;14.15;;;15.40;99.90;;;;;;4993857;28;20033;-73
2021/07/22 00:26:54;;;;;;;15.90;13.90;;;15.20;99.90;;;;;;4994065;28;20050;-73
2021/07/22 00:29:20;;;;;;;16.38;13.70;;;15.00;99.90;;;;;;4994002;28;20077;-73
2021/07/22 00:31:46;;;;;;;19.35;14.45;;;15.40;99.90;;;;;;4993880;28;20031;-73
2021/07/22 00:34:12;;;;;;;18.15;14.45;;;15.40;99.90;;;;;;4995098;28;20057;-73
2021/07/22 00:36:37;;;;;;;16.33;13.75;;;15.20;99.90;;;;;;4993662;28;20113;-73
2021/07/22 00:39:03;;;;;;;18.15;14.63;;;15.20;99.90;;;;;;4993869;28;20125;-73
2021/07/22 00:41:29;;;;;;;19.58;14.88;;;15.10;99.90;;;;;;4995026;28;20030;-75
2021/07/22 00:43:55;;;;;;;17.95;14.35;;;15.20;99.90;;;;;;4994959;28;20030;-75
2021/07/22 00:46:20;;;;;;;17.17;14.48;;;15.10;99.90;;;;;;4994457;28;20049;-75
2021/07/22 00:48:47;;;;;;;17.42;13.57;;;15.00;99.90;;;;;;4993737;28;20045;-75
2021/07/22 00:51:13;;;;;;;17.75;14.48;;;15.20;99.90;;;;;;5001126;28;20019;-75
2021/07/22 00:53:38;;;;;;;17.00;13.73;;;15.20;99.90;;;;;;4994984;28;20038;-75
2021/07/22 00:56:05;;;;;;;16.50;14.23;;;15.10;99.90;;;;;;4993505;28;20531;-75
2021/07/22 00:58:30;;;;;;;20.83;14.35;;;15.10;99.90;;;;;;4994682;28;20084;-75
2021/07/22 01:00:56;;;;;;;19.40;14.38;;;15.00;99.90;;;;;;4994546;28;20038;-75
2021/07/22 01:03:21;;;;;;;18.75;14.07;;;15.10;99.90;;;;;;4994639;28;20094;-74
2021/07/22 01:05:47;;;;;;;19.20;14.73;;;15.10;99.90;;;;;;4993671;28;20492;-74
2021/07/22 01:08:12;;;;;;;19.70;15.15;;;14.90;99.90;;;;;;4993445;28;20105;-75
2021/07/22 01:10:38;;;;;;;18.23;14.43;;;15.00;99.90;;;;;;4994631;28;20476;-75
2021/07/22 01:13:04;;;;;;;18.23;14.70;;;14.80;99.90;;;;;;4994499;28;20039;-75
2021/07/22 01:15:30;;;;;;;17.63;14.73;;;14.80;99.90;;;;;;4994169;28;20027;-75
2021/07/22 01:17:56;;;;;;;18.42;14.63;;;15.10;99.90;;;;;;4993133;28;20089;-75
2021/07/22 01:20:23;;;;;;;17.80;14.63;;;14.90;99.90;;;;;;4994452;28;20034;-75
2021/07/22 01:22:50;;;;;;;20.67;14.50;;;14.90;99.90;;;;;;4993030;28;20181;-75
2021/07/22 01:25:18;;;;;;;16.27;13.98;;;14.90;99.90;;;;;;4992816;28;20026;-74
2021/07/22 01:27:44;;;;;;;18.20;15.02;;;15.00;99.90;;;;;;4994145;28;20489;-75
2021/07/22 01:30:10;;;;;;;18.05;14.43;;;14.60;99.90;;;;;;4994250;28;20038;-75
2021/07/22 01:32:36;;;;;;;16.80;14.50;;;14.70;99.90;;;;;;4996790;28;20061;-75
2021/07/22 01:35:02;;;;;;;17.50;14.27;;;14.80;99.90;;;;;;4993616;28;20513;-75
2021/07/22 01:37:28;;;;;;;15.77;14.07;;;14.90;99.90;;;;;;4990251;28;20565;-74
2021/07/22 01:39:54;;;;;;;16.98;14.18;;;15.00;99.90;;;;;;4994050;28;20109;-74
2021/07/22 01:42:20;;;;;;;18.20;14.10;;;15.00;99.90;;;;;;4993800;28;20093;-75
2021/07/22 01:44:45;;;;;;;18.15;13.90;;;14.70;99.90;;;;;;4992417;28;20026;-75
2021/07/22 01:47:11;;;;;;;16.48;13.57;;;14.70;99.90;;;;;;4992477;28;20039;-75
2021/07/22 01:49:36;;;;;;;16.02;12.90;;;14.70;99.90;;;;;;4992522;28;20019;-75
2021/07/22 01:52:04;;;;;;;16.60;13.13;;;14.90;99.90;;;;;;4992482;28;20512;-75
2021/07/22 01:54:30;;;;;;;17.05;14.13;;;15.00;99.90;;;;;;4993621;28;20503;-75
2021/07/22 01:57:00;;;;;;;15.70;13.40;;;15.00;99.90;;;;;;4994048;28;20038;-75
2021/07/22 01:59:27;;;;;;;17.55;14.15;;;15.10;99.90;;;;;;4993573;28;20123;-75
2021/07/22 02:01:53;;;;;;;19.98;14.65;;;14.80;99.90;;;;;;4992228;28;20026;-75
2021/07/22 02:04:18;;;;;;;16.50;13.32;;;14.80;99.90;;;;;;4993520;28;20026;-75
2021/07/22 02:06:44;;;;;;;17.40;13.60;;;14.50;99.90;;;;;;4993301;28;20041;-75
2021/07/22 02:09:09;;;;;;;15.98;13.60;;;14.50;99.90;;;;;;4993535;28;20392;-75
2021/07/22 02:11:35;;;;;;;18.17;12.93;;;14.60;99.90;;;;;;4993290;28;20041;-75
2021/07/22 02:14:00;;;;;;;16.52;13.85;;;14.50;99.90;;;;;;4992108;28;20115;-75
2021/07/22 02:16:26;;;;;;;14.85;13.15;;;14.50;99.90;;;;;;4991617;28;20466;-75
2021/07/22 02:18:51;;;;;;;16.35;13.18;;;14.50;99.90;;;;;;4993335;28;20030;-74
2021/07/22 02:21:17;;;;;;;15.93;14.18;;;14.30;99.90;;;;;;4993182;28;20062;-75
2021/07/22 02:23:42;;;;;;;16.65;14.32;;;14.30;99.90;;;;;;4993262;28;20473;-75
2021/07/22 02:26:08;;;;;;;17.48;13.40;;;14.20;99.90;;;;;;4996328;28;20030;-75
2021/07/22 02:28:37;;;;;;;18.00;14.75;;;14.00;99.90;;;;;;4993180;28;20465;-75
2021/07/22 02:31:03;;;;;;;17.10;13.70;;;13.80;99.90;;;;;;4988927;28;20080;-75
2021/07/22 02:33:28;;;;;;;19.00;13.70;;;14.20;99.90;;;;;;4991901;28;20034;-74
2021/07/22 02:35:57;;;;;;;16.73;13.63;;;14.20;99.90;;;;;;4991478;28;20477;-75
2021/07/22 02:38:23;;;;;;;23.83;14.52;;;14.10;99.90;;;;;;4991790;28;20370;-75
2021/07/22 02:40:48;;;;;;;18.10;14.68;;;13.60;99.90;;;;;;4992690;28;20034;-74
2021/07/22 02:43:14;;;;;;;16.67;13.30;;;13.40;99.90;;;;;;4992866;28;20034;-75
2021/07/22 02:45:39;;;;;;;15.80;12.77;;;13.70;99.90;;;;;;4992530;28;20031;-74
2021/07/22 02:48:05;;;;;;;17.42;14.70;;;13.80;99.90;;;;;;4992689;28;20038;-75
2021/07/22 02:50:32;;;;;;;17.63;14.48;;;13.90;99.90;;;;;;4992591;28;20473;-75
2021/07/22 02:53:00;;;;;;;19.27;14.15;;;13.80;99.90;;;;;;4991457;28;20030;-75
2021/07/22 02:55:26;;;;;;;16.65;14.32;;;13.80;99.90;;;;;;4992271;28;20034;-75
2021/07/22 02:57:51;;;;;;;16.80;14.25;;;13.80;99.90;;;;;;4991216;28;20026;-75
2021/07/22 03:00:17;;;;;;;16.45;14.32;;;13.90;99.90;;;;;;4987693;28;20109;-76
2021/07/22 03:02:42;;;;;;;16.98;13.52;;;13.80;99.90;;;;;;4984360;28;20085;-76
2021/07/22 03:05:08;;;;;;;18.60;14.60;;;13.60;99.90;;;;;;5006002;28;20037;-76
2021/07/22 03:07:34;;;;;;;17.02;13.93;;;13.70;99.90;;;;;;5004428;28;20026;-76
2021/07/22 03:10:00;;;;;;;18.60;13.40;;;13.60;99.90;;;;;;4976252;28;20381;-76
2021/07/22 03:12:26;;;;;;;16.65;14.07;;;13.70;99.90;;;;;;4973151;28;20062;-75
2021/07/22 03:14:51;;;;;;;18.23;14.50;;;13.70;99.90;;;;;;4998009;28;20129;-76
2021/07/22 03:17:17;;;;;;;16.48;14.27;;;13.80;99.90;;;;;;4982816;28;20427;-76
2021/07/22 03:19:42;;;;;;;18.50;13.73;;;13.80;99.90;;;;;;4992413;28;20022;-76
2021/07/22 03:22:08;;;;;;;16.27;13.30;;;13.60;99.90;;;;;;4991022;28;20034;-76
2021/07/22 03:24:33;;;;;;;17.98;14.35;;;13.60;99.90;;;;;;4986730;28;20023;-76
2021/07/22 03:26:59;;;;;;;15.45;13.40;;;13.70;99.90;;;;;;4993260;28;20036;-76
2021/07/22 03:29:25;;;;;;;17.48;13.85;;;13.70;99.90;;;;;;5001287;28;20030;-76
2021/07/22 03:31:50;;;;;;;16.27;13.43;;;13.60;99.90;;;;;;4988827;28;20030;-76
2021/07/22 03:34:17;;;;;;;16.00;13.35;;;13.70;99.90;;;;;;5005483;28;20038;-76
2021/07/22 03:36:44;;;;;;;17.08;13.10;;;13.70;99.90;;;;;;4979241;28;20030;-76
2021/07/22 03:39:10;;;;;;;18.48;13.60;;;13.60;99.90;;;;;;4982005;28;20027;-76
2021/07/22 03:41:36;;;;;;;17.75;13.85;;;13.70;99.90;;;;;;4997270;28;20424;-76
2021/07/22 03:44:01;;;;;;;15.55;13.35;;;13.70;99.90;;;;;;5007799;28;20087;-77
2021/07/22 03:46:27;;;;;;;15.27;12.88;;;13.90;99.90;;;;;;4978921;28;20049;-76
2021/07/22 03:48:52;;;;;;;14.90;12.02;;;13.80;99.90;;;;;;4982304;28;20126;-74
2021/07/22 03:51:18;;;;;;;18.70;13.95;;;13.60;99.90;;;;;;4987671;28;20035;-74
2021/07/22 03:53:43;;;;;;;16.85;13.88;;;13.60;99.90;;;;;;4995086;28;20030;-74
2021/07/22 03:56:09;;;;;;;16.33;12.90;;;13.40;99.90;;;;;;4998417;28;20370;-74
2021/07/22 03:58:34;;;;;;;16.73;12.82;;;13.50;99.90;;;;;;4998430;28;20030;-74
2021/07/22 04:01:00;;;;;;;17.98;13.50;;;13.70;99.90;;;;;;4997221;28;20026;-74
2021/07/22 04:03:25;;;;;;;16.48;13.40;;;13.70;99.90;;;;;;4997209;28;20018;-74
2021/07/22 04:05:52;;;;;;;16.75;13.65;;;13.60;99.90;;;;;;4998177;28;20034;-74
2021/07/22 04:08:18;;;;;;;14.73;12.57;;;13.60;99.90;;;;;;4998121;28;20030;-74
2021/07/22 04:10:43;;;;;;;19.45;13.70;;;13.60;99.90;;;;;;4997098;28;20113;-74
2021/07/22 04:13:10;;;;;;;16.40;13.18;;;13.70;99.90;;;;;;5007318;28;20523;-76
2021/07/22 04:15:35;;;;;;;15.57;12.95;;;13.60;99.90;;;;;;4989401;28;20030;-76
2021/07/22 04:18:01;;;;;;;17.95;13.45;;;13.70;99.90;;;;;;4996910;28;20089;-76
2021/07/22 04:20:28;;;;;;;15.73;12.93;;;13.60;99.90;;;;;;5008758;28;20037;-76
2021/07/22 04:22:58;;;;;;;14.60;12.60;;;13.80;99.90;;;;;;5000471;28;20392;-76
2021/07/22 04:25:23;;;;;;;17.10;11.75;;;13.90;99.90;;;;;;4996866;28;20019;-75
2021/07/22 04:27:49;;;;;;;16.63;12.68;;;14.00;99.90;;;;;;4993654;28;20026;-77
2021/07/22 04:30:14;;;;;;;19.50;14.70;;;14.20;99.90;;;;;;4989874;28;20109;-76
2021/07/22 04:32:40;;;;;;;17.48;12.77;;;13.90;99.90;;;;;;5010280;28;20400;-76
2021/07/22 04:35:08;;;;;;;16.75;12.93;;;13.80;99.90;;;;;;4998093;28;20045;-76
2021/07/22 04:37:35;;;;;;;16.05;12.88;;;14.10;99.90;;;;;;5002343;28;20029;-76
2021/07/22 04:40:01;;;;;;;19.33;12.82;;;14.30;99.90;;;;;;5003267;28;20033;-76
2021/07/22 04:42:27;;;;;;;17.75;13.05;;;14.20;99.90;;;;;;4995124;28;20030;-76
2021/07/22 04:44:53;;;;;;;16.02;11.82;;;14.20;99.90;;;;;;4982752;28;20023;-76
2021/07/22 04:47:18;;;;;;;16.67;13.10;;;14.40;99.90;;;;;;4992850;28;20400;-76
2021/07/22 04:49:44;;;;;;;17.00;12.65;;;14.50;99.90;;;;;;4999895;28;20027;-75
2021/07/22 04:52:09;;;;;;;20.52;13.05;;;14.60;99.90;;;;;;4993454;28;20120;-75
2021/07/22 04:54:35;;;;;;;17.83;11.85;;;14.70;99.90;;;;;;4993492;28;20042;-75
2021/07/22 04:57:00;;;;;;;13.80;11.98;;;14.80;99.90;;;;;;4994669;28;20041;-76
2021/07/22 04:59:26;;;;;;;17.02;13.60;;;14.80;99.90;;;;;;4995038;28;20034;-75
2021/07/22 05:01:51;;;;;;;13.68;11.90;;;15.00;99.90;;;;;;4994652;28;20026;-75
2021/07/22 05:04:19;;;;;;;17.15;12.65;;;15.10;99.90;;;;;;4994738;28;20485;-75
2021/07/22 05:06:45;;;;;;;15.68;12.15;;;15.20;99.90;;;;;;4994447;28;20035;-75
2021/07/22 05:09:10;;;;;;;13.93;11.70;;;15.30;99.90;;;;;;4993291;28;20023;-75
2021/07/22 05:11:36;;;;;;;14.70;12.05;;;15.20;99.90;;;;;;4994582;28;20369;-75
2021/07/22 05:14:01;;;;;;;16.70;12.45;;;15.30;99.90;;;;;;4994669;28;20038;-75
2021/07/22 05:16:27;;;;;;;15.48;12.55;;;15.40;99.90;;;;;;4994135;28;20066;-75
2021/07/22 05:18:52;;;;;;;18.98;12.70;;;15.50;99.90;;;;;;4994444;28;20037;-75
2021/07/22 05:21:19;;;;;;;15.93;12.30;;;15.50;99.90;;;;;;4989430;28;20114;-76
2021/07/22 05:23:44;;;;;;;17.10;12.60;;;15.70;99.90;;;;;;4984979;28;20072;-76
2021/07/22 05:26:10;;;;;;;15.55;12.15;;;15.70;99.90;;;;;;4998966;28;20431;-76
2021/07/22 05:28:39;;;;;;;14.63;11.93;;;15.80;99.90;;;;;;5002518;28;20023;-76
2021/07/22 05:31:07;;;;;;;14.48;11.60;;;15.90;99.90;;;;;;4994213;28;20035;-76
2021/07/22 05:33:33;;;;;;;22.05;12.13;;;16.00;99.90;;;;;;5005950;28;20026;-76
2021/07/22 05:36:03;;;;;;;18.42;12.45;;;16.00;99.90;;;;;;4995094;28;20033;-74
2021/07/22 05:38:30;;;;;;;17.00;12.00;;;16.20;99.90;;;;;;4992646;28;20443;-74
2021/07/22 05:41:01;;;;;;;16.58;12.35;;;16.20;99.90;;;;;;4993971;28;20109;-74
2021/07/22 05:43:28;;;;;;;17.23;11.50;;;16.30;99.90;;;;;;4992718;28;20110;-73
2021/07/22 05:45:54;;;;;;;14.10;11.60;;;16.50;99.90;;;;;;4992536;28;20049;-74
2021/07/22 05:48:20;;;;;;;13.70;11.25;;;16.50;99.90;;;;;;4993634;28;20030;-74
2021/07/22 05:50:46;;;;;;;16.20;12.10;;;16.50;99.90;;;;;;4993458;28;20350;-74
2021/07/22 05:53:12;;;;;;;14.05;11.30;;;16.50;99.90;;;;;;4992493;28;20031;-74
2021/07/22 05:55:37;;;;;;;16.90;11.10;;;16.70;99.90;;;;;;4993457;28;20048;-74
2021/07/22 05:58:03;;;;;;;14.57;11.45;;;16.90;99.90;;;;;;4993625;28;20634;-74
2021/07/22 06:00:28;;;;;;;16.38;11.23;;;16.90;99.90;;;;;;4992326;28;20110;-74
2021/07/22 06:02:54;;;;;;;15.90;12.23;;;17.10;99.90;;;;;;4993430;28;20157;-74
2021/07/22 06:05:19;;;;;;;14.07;11.20;;;17.20;99.90;;;;;;4993330;28;20038;-74
2021/07/22 06:07:46;;;;;;;13.13;10.93;;;17.30;99.90;;;;;;4993431;28;20030;-74
2021/07/22 06:10:12;;;;;;;15.38;11.35;;;17.40;99.90;;;;;;4992453;28;20084;-74
2021/07/22 06:12:39;;;;;;;13.35;10.65;;;17.50;99.90;;;;;;4992288;28;20037;-74
2021/07/22 06:15:05;;;;;;;14.50;10.52;;;17.60;99.90;;;;;;4993150;28;20041;-75
2021/07/22 06:17:34;;;;;;;12.48;9.57;;;17.70;99.90;;;;;;4993228;28;20394;-75
2021/07/22 06:19:59;;;;;;;13.80;10.40;;;17.80;99.90;;;;;;4993343;28;20026;-75
2021/07/22 06:22:25;;;;;;;13.15;9.40;;;17.80;99.90;;;;;;4991709;28;20048;-74
2021/07/22 06:24:50;;;;;;;13.02;10.48;;;17.90;99.90;;;;;;4991960;28;20105;-75
2021/07/22 06:27:15;;;;;;;12.65;10.00;;;18.00;99.90;;;;;;4991777;28;20023;-74
2021/07/22 06:29:41;;;;;;;13.52;10.82;;;18.10;99.90;;;;;;4991854;28;20024;-75
2021/07/22 06:32:07;;;;;;;14.13;9.30;;;18.20;99.90;;;;;;4994810;28;20489;-77
2021/07/22 06:34:33;;;;;;;12.23;9.90;;;18.30;99.90;;;;;;5007483;28;20053;-78
2021/07/22 06:36:58;;;;;;;12.15;9.05;;;18.40;99.90;;;;;;4992825;28;20480;-78
2021/07/22 06:39:24;;;;;;;11.90;8.55;;;18.40;99.90;;;;;;4986283;28;20027;-78
2021/07/22 06:41:49;;;;;;;11.15;8.18;;;18.70;99.90;;;;;;4987661;28;20050;-77
2021/07/22 06:44:15;;;;;;;9.95;7.50;;;19.00;99.90;;;;;;4994440;28;20500;-77
2021/07/22 06:46:40;;;;;;;9.95;7.70;;;19.20;99.90;;;;;;4992736;28;20033;-77
2021/07/22 06:49:06;;;;;;;11.82;8.35;;;19.30;99.90;;;;;;5006530;28;20022;-77
2021/07/22 06:51:31;;;;;;;10.93;8.23;;;19.30;99.90;;;;;;4998505;28;20026;-78
2021/07/22 06:53:57;;;;;;;10.85;7.47;;;19.40;99.90;;;;;;4993110;28;20065;-77
2021/07/22 06:56:23;;;;;;;10.10;8.25;;;19.50;99.90;;;;;;4994366;28;20046;-77
2021/07/22 06:58:49;;;;;;;10.70;8.05;;;19.50;99.90;;;;;;4994535;28;20387;-78
2021/07/22 07:01:15;;;;;;;11.13;7.40;;;19.50;99.90;;;;;;4981620;28;20034;-78
2021/07/22 07:03:40;;;;;;;11.35;8.40;;;19.60;99.90;;;;;;4991991;28;20052;-78
2021/07/22 07:06:06;;;;;;;15.60;8.93;;;19.60;99.90;;;;;;4992726;28;20113;-77
2021/07/22 07:08:32;;;;;;;13.48;8.90;;;19.50;99.90;;;;;;4992663;28;20033;-77
2021/07/22 07:10:57;;;;;;;9.85;7.72;;;19.60;99.90;;;;;;4992728;28;20030;-78
2021/07/22 07:13:22;;;;;;;10.70;8.20;;;19.90;99.90;;;;;;4993257;28;20689;-77
2021/07/22 07:15:48;;;;;;;10.23;7.97;;;20.00;99.90;;;;;;4983987;28;20485;-75
2021/07/22 07:18:13;;;;;;;11.82;8.02;;;20.00;99.90;;;;;;4978638;28;20064;-76
2021/07/22 07:20:39;;;;;;;9.60;7.82;;;20.10;99.90;;;;;;4985335;28;20030;-78
2021/07/22 07:23:04;;;;;;;11.90;8.13;;;20.30;99.90;;;;;;4980059;28;20034;-76
2021/07/22 07:25:30;;;;;;;10.60;7.60;;;20.30;99.90;;;;;;4992740;28;20027;-77
2021/07/22 07:27:56;;;;;;;10.52;7.63;;;20.40;99.90;;;;;;4979689;28;20050;-76
2021/07/22 07:30:22;;;;;;;10.38;8.02;;;20.50;99.90;;;;;;4979192;28;20055;-76
2021/07/22 07:32:48;;;;;;;8.95;7.90;;;20.40;99.90;;;;;;4989906;28;20045;-76
2021/07/22 07:35:14;;;;;;;10.70;8.07;;;20.20;99.90;;;;;;4990721;28;20030;-77
2021/07/22 07:37:40;;;;;;;10.15;7.72;;;19.90;99.90;;;;;;4991077;28;20018;-77
2021/07/22 07:40:06;;;;;;;12.32;7.97;;;20.00;99.90;;;;;;4990458;28;20519;-76
2021/07/22 07:42:31;;;;;;;13.68;8.85;;;20.30;99.90;;;;;;4991490;28;20042;-77
2021/07/22 07:44:58;;;;;;;10.25;8.43;;;20.50;99.90;;;;;;4991568;28;20404;-76
2021/07/22 07:47:23;;;;;;;10.73;7.78;;;20.60;99.90;;;;;;4990529;28;20542;-77
2021/07/22 07:49:49;;;;;;;12.63;8.05;;;20.70;99.90;;;;;;4995935;28;20048;-76
2021/07/22 07:52:15;;;;;;;10.50;8.10;;;20.80;99.90;;;;;;4993355;28;20072;-77
2021/07/22 07:54:40;;;;;;;9.63;8.38;;;21.00;99.90;;;;;;4991137;28;20069;-77
2021/07/22 07:57:06;;;;;;;11.88;8.13;;;21.00;99.90;;;;;;4996381;28;20109;-76
2021/07/22 07:59:31;;;;;;;11.35;8.70;;;20.90;99.90;;;;;;4987387;28;20027;-76
2021/07/22 08:01:57;;;;;;;11.23;9.35;;;20.70;99.90;;;;;;4989824;28;20045;-76
2021/07/22 08:04:22;;;;;;;9.65;8.07;;;20.50;99.90;;;;;;4990940;28;20018;-76
2021/07/22 08:06:48;;;;;;;11.48;8.63;;;20.70;99.90;;;;;;4992144;28;20018;-76
2021/07/22 08:09:13;;;;;;;11.52;8.25;;;21.00;99.90;;;;;;4991052;28;20077;-76
2021/07/22 08:11:39;;;;;;;12.63;8.25;;;21.20;99.90;;;;;;4992095;28;20101;-76
2021/07/22 08:14:04;;;;;;;10.75;8.80;;;21.10;99.90;;;;;;4992444;28;20049;-76
2021/07/22 08:16:29;;;;;;;12.25;9.00;;;21.10;99.90;;;;;;4995826;28;20042;-76
2021/07/22 08:18:55;;;;;;;11.45;8.80;;;21.30;99.90;;;;;;4994536;28;20033;-77
2021/07/22 08:21:21;;;;;;;12.73;8.75;;;21.20;99.90;;;;;;4999365;28;20053;-77
2021/07/22 08:23:46;;;;;;;12.95;8.25;;;21.10;99.90;;;;;;4991288;28;20027;-76
2021/07/22 08:26:12;;;;;;;9.93;8.85;;;21.20;99.90;;;;;;4974572;28;20054;-76
2021/07/22 08:28:37;;;;;;;16.67;9.40;;;21.40;99.90;;;;;;4985916;28;20097;-76
2021/07/22 08:31:03;;;;;;;10.93;9.45;;;21.70;99.90;;;;;;4995795;28;20033;-76
2021/07/22 08:33:29;;;;;;;11.93;9.05;;;21.60;99.90;;;;;;4996158;28;20077;-76
2021/07/22 08:35:55;;;;;;;11.88;8.90;;;21.40;99.90;;;;;;4994193;28;20049;-76
2021/07/22 08:38:20;;;;;;;11.15;9.50;;;21.20;99.90;;;;;;4994216;28;20484;-76
2021/07/22 08:40:46;;;;;;;11.65;9.55;;;21.40;99.90;;;;;;4994028;28;20030;-76
2021/07/22 08:43:12;;;;;;;11.27;8.70;;;21.50;99.90;;;;;;5006768;28;20382;-77
2021/07/22 08:45:38;;;;;;;16.15;9.75;;;21.50;99.90;;;;;;4979249;28;20034;-77
2021/07/22 08:48:04;;;;;;;11.30;10.07;;;21.50;99.90;;;;;;4974621;28;20039;-76
2021/07/22 08:50:29;;;;;;;11.50;8.93;;;21.30;99.90;;;;;;4992200;28;20041;-77
2021/07/22 08:52:55;;;;;;;11.57;9.30;;;21.20;99.90;;;;;;4995232;28;20546;-77
2021/07/22 08:55:21;;;;;;;12.63;9.40;;;21.50;99.90;;;;;;4999611;28;20037;-76
2021/07/22 08:57:48;;;;;;;12.98;9.80;;;21.70;99.90;;;;;;5000184;28;20069;-76
2021/07/22 09:00:15;;;;;;;14.27;9.73;;;21.60;99.90;;;;;;4993883;28;20057;-76
2021/07/22 09:02:42;;;;;;;12.23;9.77;;;21.60;99.90;;;;;;4994875;28;20476;-76
2021/07/22 09:05:08;;;;;;;12.07;9.05;;;21.70;99.90;;;;;;4993709;28;20093;-76
2021/07/22 09:07:34;;;;;;;12.25;9.00;;;21.90;99.90;;;;;;5004736;28;20026;-76
2021/07/22 09:10:05;;;;;;;11.25;9.85;;;21.90;99.90;;;;;;4978949;28;20497;-76
2021/07/22 09:12:53;;;;;;;11.30;9.35;;;22.00;99.90;;;;;;4986941;28;20072;-76
2021/07/22 09:15:23;;;;;;;12.93;9.70;;;22.00;99.90;;;;;;4994609;28;20026;-76
2021/07/22 09:17:52;;;;;;;10.85;8.48;;;22.00;99.90;;;;;;5005579;28;20492;-76
2021/07/22 09:20:26;;;;;;;9.93;8.75;;;21.90;99.90;;;;;;4982402;28;20030;-76
2021/07/22 09:22:52;;;;;;;11.35;8.60;;;22.20;99.90;;;;;;4993268;28;20072;-77
2021/07/22 09:25:18;;;;;;;12.65;8.73;;;22.40;99.90;;;;;;4993899;28;20066;-76
2021/07/22 09:27:45;;;;;;;9.50;8.45;;;22.40;99.90;;;;;;4994665;28;20050;-76
2021/07/22 09:30:16;;;;;;;11.20;8.32;;;22.60;99.90;;;;;;4994704;28;20036;-76
2021/07/22 09:32:50;;;;;;;9.70;8.38;;;22.20;99.90;;;;;;4998569;28;20026;-76
2021/07/22 09:35:16;;;;;;;13.02;7.72;;;22.40;99.90;;;;;;4991290;28;20034;-76
2021/07/22 09:37:44;;;;;;;13.15;8.30;;;22.90;99.90;;;;;;4993262;28;20381;-76
2021/07/22 09:40:11;;;;;;;12.57;8.52;;;23.20;99.90;;;;;;4993607;28;20032;-77
2021/07/22 09:42:45;;;;;;;9.80;7.97;;;23.40;99.90;;;;;;5002799;28;20551;-77
2021/07/22 09:45:16;;;;;;;11.95;8.63;;;23.30;99.90;;;;;;4975033;28;20022;-76
2021/07/22 09:47:42;;;;;;;12.82;8.98;;;23.00;99.90;;;;;;4980803;28;20412;-77
2021/07/22 09:50:16;;;;;;;11.35;9.23;;;22.90;99.90;;;;;;5047826;23;20053;-71
2021/07/22 09:52:47;;;;;;;12.25;7.80;;;22.70;99.90;;;;;;5007414;28;20420;-73
2021/07/22 09:55:28;;;;;;;9.90;8.27;;;22.80;99.90;;;;;;4997279;28;20026;-73
2021/07/22 09:57:56;;;;;;;10.57;8.70;;;23.00;99.90;;;;;;5004260;28;20045;-73
2021/07/22 10:00:23;;;;;;;10.52;8.15;;;23.10;99.90;;;;;;4976013;28;20483;-73
2021/07/22 10:02:53;;;;;;;11.20;8.20;;;23.20;99.90;;;;;;4974436;28;20034;-73
2021/07/22 10:05:25;;;;;;;10.77;8.05;;;23.20;99.90;;;;;;4973898;28;20054;-73
2021/07/22 10:07:52;;;;;;;10.20;8.35;;;23.10;99.90;;;;;;4974129;28;20066;-73
2021/07/22 10:10:22;;;;;;;10.73;7.40;;;23.50;99.90;;;;;;4974044;28;20027;-73
2021/07/22 10:13:07;;;;;;;9.75;8.70;;;23.50;99.90;;;;;;4973981;28;20030;-73
2021/07/22 10:15:36;;;;;;;9.52;8.30;;;23.60;99.90;;;;;;4973894;28;20035;-73
2021/07/22 10:18:04;;;;;;;10.65;7.90;;;24.00;99.90;;;;;;4973813;28;20480;-73
2021/07/22 10:20:32;;;;;;;8.73;7.50;;;24.20;99.90;;;;;;4972489;28;20031;-73
2021/07/22 10:22:59;;;;;;;10.45;8.25;;;24.50;99.90;;;;;;4973758;28;20096;-73
2021/07/22 10:25:25;;;;;;;11.27;8.52;;;24.50;99.90;;;;;;4973480;28;20033;-74
2021/07/22 10:27:53;;;;;;;9.68;7.72;;;24.40;99.90;;;;;;4973712;28;20023;-73
2021/07/22 10:30:21;;;;;;;10.13;7.78;;;24.20;99.90;;;;;;4973665;28;20032;-73
2021/07/22 10:32:56;;;;;;;11.02;8.80;;;24.20;99.90;;;;;;4972351;28;20307;-73
2021/07/22 10:35:33;;;;;;;9.30;7.95;;;24.50;99.90;;;;;;4973396;28;20086;-73
2021/07/22 10:38:14;;;;;;;9.75;7.97;;;24.80;99.90;;;;;;4972598;28;20039;-73
2021/07/22 10:40:43;;;;;;;9.20;8.10;;;24.90;99.90;;;;;;4973407;28;20511;-73
2021/07/22 10:43:29;;;;;;;12.38;8.02;;;25.20;99.90;;;;;;4973500;28;20035;-73
2021/07/22 10:45:55;;;;;;;9.70;8.23;;;24.80;99.90;;;;;;4971909;28;20023;-73
2021/07/22 10:48:26;;;;;;;11.00;8.18;;;24.30;99.90;;;;;;4973202;28;20294;-74
2021/07/22 10:50:54;;;;;;;11.77;8.70;;;24.70;99.90;;;;;;4993018;28;20626;-73
2021/07/22 10:53:36;;;;;;;11.52;8.25;;;24.90;99.90;;;;;;4998086;28;20092;-73
2021/07/22 10:56:03;;;;;;;11.13;8.25;;;25.00;99.90;;;;;;4992640;28;20365;-74
2021/07/22 10:58:34;;;;;;;12.07;8.38;;;25.00;99.90;;;;;;4976247;28;20026;-73
2021/07/22 11:01:04;;;;;;;11.77;7.93;;;25.40;99.90;;;;;;4973310;28;20031;-73
2021/07/22 11:03:35;;;;;;;10.68;7.45;;;25.90;99.90;;;;;;4973170;28;20397;-73
2021/07/22 11:06:05;;;;;;;9.05;7.55;;;25.20;99.90;;;;;;4973016;28;20050;-73
2021/07/22 11:08:32;;;;;;;11.73;8.07;;;25.30;99.90;;;;;;4972942;28;20353;-73
2021/07/22 11:11:09;;;;;;;9.73;7.35;;;25.80;99.90;;;;;;4973157;28;20027;-73
2021/07/22 11:13:40;;;;;;;11.23;8.10;;;26.20;99.90;;;;;;4973062;28;20087;-73
2021/07/22 11:16:10;;;;;;;9.18;7.43;;;25.50;99.90;;;;;;4972809;28;20015;-73
2021/07/22 11:18:42;;;;;;;9.73;7.95;;;25.00;99.90;;;;;;4972987;28;20044;-73
2021/07/22 11:21:18;;;;;;;9.82;8.57;;;25.30;99.90;;;;;;4971636;28;20030;-73
2021/07/22 11:24:04;;;;;;;9.63;8.00;;;24.50;99.90;;;;;;4972952;28;20023;-73
2021/07/22 11:26:34;;;;;;;;;;;23.90;99.90;;;;;;4973243;28;20638;-73
2021/07/22 11:29:02;;;;;;;12.10;9.43;;;23.50;99.90;;;;;;4972812;28;19913;-73
2021/07/22 11:31:31;;;;;;;11.30;7.93;;;24.00;99.90;;;;;;4972746;28;20022;-73
2021/07/22 11:34:02;;;;;;;11.60;8.07;;;24.70;99.90;;;;;;4971462;28;20031;-73
2021/07/22 11:36:29;;;;;;;11.98;8.23;;;25.20;99.90;;;;;;4972909;28;20425;-73
2021/07/22 11:38:55;;;;;;;9.75;7.57;;;25.30;99.90;;;;;;4972709;28;20038;-73
2021/07/22 11:41:22;;;;;;;10.60;8.27;;;25.60;99.90;;;;;;4972755;28;20041;-73
2021/07/22 11:43:59;;;;;;;9.10;8.20;;;25.50;99.90;;;;;;4972777;28;20062;-73
2021/07/22 11:46:36;;;;;;;9.85;8.18;;;25.70;99.90;;;;;;4972560;28;20039;-73
2021/07/22 11:49:06;;;;;;;9.00;7.65;;;25.90;99.90;;;;;;4973952;28;20038;-73
2021/07/22 11:51:32;;;;;;;10.50;8.02;;;26.00;99.90;;;;;;4995366;28;20562;-73
2021/07/22 11:54:00;;;;;;;10.82;7.88;;;26.60;99.90;;;;;;4996053;28;20282;-73
2021/07/22 11:56:31;;;;;;;9.32;7.60;;;26.40;99.90;;;;;;4995824;28;20022;-73
2021/07/22 11:58:57;;;;;;;10.57;7.60;;;26.00;99.90;;;;;;4976535;28;20440;-73
2021/07/22 12:01:22;;;;;;;11.30;7.75;;;26.30;99.90;;;;;;4976224;28;20026;-73
2021/07/22 12:03:48;;;;;;;9.70;7.90;;;26.60;99.90;;;;;;4976420;28;20026;-73
2021/07/22 12:06:24;;;;;;;10.15;7.47;;;27.10;99.90;;;;;;4976356;28;20073;-73
2021/07/22 12:09:03;;;;;;;;;;;26.60;99.90;;;;;;4975458;28;20019;-73
2021/07/22 12:11:28;;;;;;;13.02;7.75;;;26.20;99.90;;;;;;4976235;28;19988;-73
2021/07/22 12:13:54;;;;;;;10.13;7.50;;;25.80;99.90;;;;;;4976183;28;20087;-73
2021/07/22 12:16:22;;;;;;;9.13;7.40;;;25.60;99.90;;;;;;4975905;28;20038;-73
2021/07/22 12:18:52;;;;;;;8.63;7.55;;;25.40;99.90;;;;;;4976077;28;20362;-73
2021/07/22 12:21:21;;;;;;;12.13;7.90;;;25.40;99.90;;;;;;4976047;28;20082;-73
2021/07/22 12:23:47;;;;;;;12.18;7.93;;;25.50;99.90;;;;;;4976232;28;20393;-73
2021/07/22 12:26:16;;;;;;;8.82;7.90;;;25.60;99.90;;;;;;4975709;28;20499;-73
2021/07/22 12:28:44;;;;;;;12.95;7.88;;;25.50;99.90;;;;;;4975848;28;20510;-73
2021/07/22 12:31:18;;;;;;;9.82;8.20;;;25.30;99.90;;;;;;4975918;28;20061;-73